Time;durP1;ratioP1;P1;durP2;ratioP2;P2;SDS_P1;SDS_P2;PMS_P1;PMS_P2;Temp;Humidity;BMP_temperature;BMP_pressure;BME280_temperature;BME280_humidity;BME280_pressure;Samples;Min_cycle;Max_cycle;Signal;HPM_P1;HPM_P2
2021/06/29 00:00:36;;;;;;;11.60;4.85;;;16.80;99.90;;;;;;5014186;28;20025;-81
2021/06/29 00:03:04;;;;;;;6.78;3.75;;;16.90;99.90;;;;;;5016692;28;20573;-80
2021/06/29 00:05:31;;;;;;;7.78;4.35;;;16.90;99.90;;;;;;5033868;28;20036;-80
2021/06/29 00:07:57;;;;;;;5.68;4.22;;;16.90;99.90;;;;;;5049140;28;20030;-80
2021/06/29 00:10:24;;;;;;;6.85;6.03;;;17.00;99.90;;;;;;5049135;28;20027;-80
2021/06/29 00:12:51;;;;;;;4.97;4.47;;;17.10;99.90;;;;;;5032823;28;20064;-81
2021/06/29 00:15:16;;;;;;;5.15;4.65;;;17.00;99.90;;;;;;5032764;28;20033;-81
2021/06/29 00:17:42;;;;;;;8.93;4.78;;;17.10;99.90;;;;;;5033644;28;20031;-80
2021/06/29 00:20:08;;;;;;;6.00;4.72;;;17.20;99.90;;;;;;5033521;28;20029;-80
2021/06/29 00:22:34;;;;;;;7.22;5.30;;;17.20;99.90;;;;;;5048381;28;20033;-81
2021/06/29 00:24:59;;;;;;;7.80;5.88;;;17.30;99.90;;;;;;5031706;28;20641;-81
2021/06/29 00:27:25;;;;;;;6.10;4.90;;;17.30;99.90;;;;;;5048837;28;20075;-81
2021/06/29 00:29:50;;;;;;;5.50;4.90;;;17.40;99.90;;;;;;5048691;28;20057;-81
2021/06/29 00:32:16;;;;;;;8.63;6.07;;;17.40;99.90;;;;;;5031408;28;20036;-80
2021/06/29 00:34:41;;;;;;;8.10;5.57;;;17.50;99.90;;;;;;5033365;28;20029;-81
2021/06/29 00:37:07;;;;;;;8.50;5.38;;;17.50;99.90;;;;;;5033134;28;20029;-81
2021/06/29 00:39:32;;;;;;;6.25;4.97;;;17.50;99.90;;;;;;5033284;28;20436;-81
2021/06/29 00:41:58;;;;;;;6.15;4.95;;;17.60;99.90;;;;;;5041592;28;20478;-81
2021/06/29 00:44:24;;;;;;;6.07;5.30;;;17.70;99.90;;;;;;5013265;28;20021;-81
2021/06/29 00:46:51;;;;;;;5.32;4.82;;;17.70;99.90;;;;;;5013313;28;20486;-81
2021/06/29 00:49:17;;;;;;;6.45;4.70;;;17.80;99.90;;;;;;5013240;28;20080;-81
2021/06/29 00:51:43;;;;;;;5.80;4.63;;;17.80;99.90;;;;;;5042408;28;20393;-81
2021/06/29 00:54:10;;;;;;;8.70;5.75;;;17.70;99.90;;;;;;5032920;28;20030;-81
2021/06/29 00:56:39;;;;;;;6.65;4.82;;;17.70;99.90;;;;;;5032921;28;20032;-81
2021/06/29 00:59:04;;;;;;;4.63;3.95;;;17.70;99.90;;;;;;5032655;28;20107;-81
2021/06/29 01:01:30;;;;;;;6.85;5.47;;;17.70;99.90;;;;;;5028477;28;20057;-81
2021/06/29 01:03:56;;;;;;;8.20;4.35;;;17.70;99.90;;;;;;5046235;28;20025;-81
2021/06/29 01:06:22;;;;;;;7.60;5.05;;;17.70;99.90;;;;;;5031763;28;20021;-81
2021/06/29 01:08:47;;;;;;;6.53;5.05;;;17.70;99.90;;;;;;5032620;28;20036;-81
2021/06/29 01:11:13;;;;;;;8.25;5.05;;;17.70;99.90;;;;;;5044948;28;20046;-81
2021/06/29 01:13:44;;;;;;;12.32;5.65;;;17.70;99.90;;;;;;5016172;28;20520;-80
2021/06/29 01:16:11;;;;;;;7.78;5.40;;;17.70;99.90;;;;;;5012789;28;20029;-80
2021/06/29 01:18:38;;;;;;;8.75;5.25;;;17.60;99.90;;;;;;5013720;28;20087;-80
2021/06/29 01:21:05;;;;;;;9.52;5.15;;;17.70;99.90;;;;;;5027673;28;20025;-81
2021/06/29 01:23:32;;;;;;;7.03;5.13;;;17.50;99.90;;;;;;5011120;28;20022;-81
2021/06/29 01:26:12;;;;;;;9.75;5.22;;;17.60;99.90;;;;;;5011268;28;20033;-81
2021/06/29 01:29:11;;;;;;;7.30;5.22;;;17.70;99.90;;;;;;5012284;28;20076;-81
2021/06/29 01:31:34;;;;;;;6.75;4.70;;;17.60;99.90;;;;;;5008300;28;20562;-80
2021/06/29 01:34:01;;;;;;;12.68;6.38;;;17.60;99.90;;;;;;5012500;28;20044;-80
2021/06/29 01:36:33;;;;;;;7.72;5.90;;;17.70;99.90;;;;;;5012478;28;20386;-81
2021/06/29 01:38:59;;;;;;;9.77;5.47;;;17.60;99.90;;;;;;5014023;28;20075;-81
2021/06/29 01:41:26;;;;;;;6.60;5.38;;;17.70;99.90;;;;;;5047183;28;20302;-80
2021/06/29 01:44:03;;;;;;;8.90;5.97;;;17.50;99.90;;;;;;5031793;28;20112;-81
2021/06/29 01:46:32;;;;;;;13.07;6.63;;;17.60;99.90;;;;;;5032070;28;20482;-81
2021/06/29 01:48:58;;;;;;;15.27;6.47;;;17.60;99.90;;;;;;5031936;28;20454;-81
2021/06/29 01:51:24;;;;;;;8.32;5.43;;;17.60;99.90;;;;;;5028082;28;20117;-81
2021/06/29 01:53:51;;;;;;;8.07;6.07;;;17.60;99.90;;;;;;5012068;28;20021;-81
2021/06/29 01:56:20;;;;;;;6.15;4.85;;;17.60;99.90;;;;;;5010712;28;20058;-81
2021/06/29 01:58:54;;;;;;;7.45;6.25;;;17.50;99.90;;;;;;5012104;28;20021;-81
2021/06/29 02:01:21;;;;;;;5.78;5.22;;;17.50;99.90;;;;;;5025622;28;20029;-81
2021/06/29 02:03:47;;;;;;;12.77;5.85;;;17.50;99.90;;;;;;5047035;28;20025;-80
2021/06/29 02:06:14;;;;;;;10.18;7.20;;;17.40;99.90;;;;;;5046977;28;20549;-80
2021/06/29 02:08:41;;;;;;;7.53;6.47;;;17.40;99.90;;;;;;5046957;28;20029;-81
2021/06/29 02:11:06;;;;;;;8.10;6.10;;;17.40;99.90;;;;;;5021275;28;20124;-81
2021/06/29 02:13:32;;;;;;;9.63;6.43;;;17.40;99.90;;;;;;5026847;28;20486;-81
2021/06/29 02:15:59;;;;;;;9.82;7.00;;;17.40;99.90;;;;;;5010591;28;20335;-81
2021/06/29 02:18:25;;;;;;;12.82;6.68;;;17.30;99.90;;;;;;5010424;28;20033;-81
2021/06/29 02:20:50;;;;;;;15.05;6.63;;;17.40;99.90;;;;;;5016939;28;20032;-81
2021/06/29 02:23:16;;;;;;;10.80;7.88;;;17.30;99.90;;;;;;5031203;28;20029;-80
2021/06/29 02:25:42;;;;;;;11.73;6.55;;;17.30;99.90;;;;;;5031360;28;20505;-81
2021/06/29 02:28:08;;;;;;;10.23;7.65;;;17.20;99.90;;;;;;5046837;28;20057;-81
2021/06/29 02:30:34;;;;;;;16.63;8.18;;;17.20;99.90;;;;;;5046399;28;20093;-80
2021/06/29 02:32:59;;;;;;;10.50;7.60;;;17.20;99.90;;;;;;5031154;28;20478;-81
2021/06/29 02:35:25;;;;;;;10.45;7.70;;;17.10;99.90;;;;;;5031411;28;20029;-81
2021/06/29 02:37:51;;;;;;;8.98;7.13;;;17.10;99.90;;;;;;5031415;28;20398;-81
2021/06/29 02:40:17;;;;;;;8.73;7.05;;;17.10;99.90;;;;;;5031296;28;20100;-81
2021/06/29 02:42:43;;;;;;;7.45;6.65;;;17.10;99.90;;;;;;5016568;28;20026;-81
2021/06/29 02:45:09;;;;;;;11.07;7.32;;;17.10;99.90;;;;;;5026927;28;20096;-81
2021/06/29 02:47:38;;;;;;;8.30;6.85;;;17.10;99.90;;;;;;5011534;28;20018;-81
2021/06/29 02:50:06;;;;;;;10.07;6.82;;;17.00;99.90;;;;;;5011449;28;20022;-81
2021/06/29 02:52:33;;;;;;;7.47;6.20;;;17.00;99.90;;;;;;5014486;28;20082;-81
2021/06/29 02:55:03;;;;;;;10.57;8.27;;;17.00;99.90;;;;;;5011612;28;20120;-81
2021/06/29 02:57:29;;;;;;;15.07;7.90;;;17.00;99.90;;;;;;5011244;28;20088;-81
2021/06/29 02:59:55;;;;;;;10.80;7.82;;;17.10;99.90;;;;;;5010232;28;20092;-81
2021/06/29 03:02:20;;;;;;;12.02;8.73;;;17.10;99.90;;;;;;5028490;28;20080;-81
2021/06/29 03:04:46;;;;;;;15.20;10.13;;;17.10;99.90;;;;;;5012461;28;20036;-81
2021/06/29 03:07:11;;;;;;;11.88;9.38;;;17.20;99.90;;;;;;5011292;28;20383;-81
2021/06/29 03:09:37;;;;;;;15.90;8.85;;;17.20;99.90;;;;;;5010220;28;20096;-81
2021/06/29 03:12:03;;;;;;;21.88;10.65;;;17.20;99.90;;;;;;5011664;28;20026;-81
2021/06/29 03:14:28;;;;;;;14.80;10.30;;;17.30;99.90;;;;;;5031081;28;20033;-81
2021/06/29 03:16:54;;;;;;;13.15;9.73;;;17.40;99.90;;;;;;5031184;28;20076;-81
2021/06/29 03:19:20;;;;;;;16.60;10.23;;;17.40;99.90;;;;;;5031039;28;20021;-81
2021/06/29 03:21:46;;;;;;;16.77;10.80;;;17.40;99.90;;;;;;5045980;28;20393;-81
2021/06/29 03:24:12;;;;;;;18.13;10.75;;;17.30;99.90;;;;;;5014867;28;20512;-81
2021/06/29 03:26:38;;;;;;;12.93;9.45;;;17.40;99.90;;;;;;5014499;28;20112;-81
2021/06/29 03:29:04;;;;;;;16.88;10.73;;;17.30;99.90;;;;;;5012036;28;20050;-81
2021/06/29 03:31:32;;;;;;;19.85;11.35;;;17.40;99.90;;;;;;5013433;28;20490;-81
2021/06/29 03:33:58;;;;;;;14.38;11.38;;;17.30;99.90;;;;;;5025399;28;20079;-81
2021/06/29 03:36:24;;;;;;;15.63;11.50;;;17.30;99.90;;;;;;5034475;28;20053;-81
2021/06/29 03:38:50;;;;;;;19.08;10.88;;;17.40;99.90;;;;;;5034366;28;20029;-81
2021/06/29 03:41:15;;;;;;;17.55;11.60;;;17.40;99.90;;;;;;5049380;28;20034;-81
2021/06/29 03:43:41;;;;;;;14.48;10.98;;;17.40;99.90;;;;;;5028384;28;20479;-80
2021/06/29 03:46:07;;;;;;;15.90;11.00;;;17.40;99.90;;;;;;5029760;28;20030;-81
2021/06/29 03:48:33;;;;;;;16.75;11.18;;;17.50;99.90;;;;;;5013172;28;20172;-80
2021/06/29 03:50:59;;;;;;;12.02;9.85;;;17.40;99.90;;;;;;5014390;28;20032;-81
2021/06/29 03:53:25;;;;;;;13.82;10.27;;;17.50;99.90;;;;;;5014347;28;20030;-81
2021/06/29 03:55:50;;;;;;;25.90;11.40;;;17.40;99.90;;;;;;5030080;28;20033;-80
2021/06/29 03:58:16;;;;;;;16.77;9.85;;;17.40;99.90;;;;;;5014403;28;20439;-81
2021/06/29 04:00:41;;;;;;;14.65;9.30;;;17.40;99.90;;;;;;5014249;28;20029;-80
2021/06/29 04:03:07;;;;;;;11.77;7.38;;;17.40;99.90;;;;;;5017095;28;20551;-80
2021/06/29 04:05:32;;;;;;;19.27;8.82;;;17.30;99.90;;;;;;5029229;28;20014;-80
2021/06/29 04:07:58;;;;;;;12.98;8.88;;;17.40;99.90;;;;;;5014062;28;20076;-80
2021/06/29 04:10:24;;;;;;;17.02;9.95;;;17.50;99.90;;;;;;5028048;28;20025;-81
2021/06/29 04:12:50;;;;;;;12.95;8.73;;;17.50;99.90;;;;;;5033470;28;20025;-80
2021/06/29 04:15:15;;;;;;;22.20;8.65;;;17.60;99.90;;;;;;5033302;28;20111;-81
2021/06/29 04:17:41;;;;;;;12.52;9.35;;;17.60;99.90;;;;;;5033681;28;20048;-81
2021/06/29 04:20:08;;;;;;;12.63;8.25;;;17.80;99.90;;;;;;5024208;28;20033;-81
2021/06/29 04:22:34;;;;;;;20.65;7.85;;;17.80;99.90;;;;;;5013322;28;20113;-80
2021/06/29 04:25:00;;;;;;;14.70;9.80;;;17.80;99.90;;;;;;5012490;28;20056;-80
2021/06/29 04:27:26;;;;;;;13.18;8.88;;;17.90;99.90;;;;;;5013730;28;20029;-80
2021/06/29 04:29:52;;;;;;;9.30;7.38;;;17.90;99.90;;;;;;5017672;28;20401;-81
2021/06/29 04:32:19;;;;;;;8.85;6.97;;;18.10;99.90;;;;;;5033375;28;20394;-81
2021/06/29 04:34:45;;;;;;;19.40;8.75;;;18.20;99.90;;;;;;5046872;28;20125;-80
2021/06/29 04:37:10;;;;;;;12.95;8.05;;;18.20;99.90;;;;;;5033240;28;20101;-81
2021/06/29 04:39:36;;;;;;;13.30;8.32;;;18.40;99.90;;;;;;5048566;28;20025;-81
2021/06/29 04:42:01;;;;;;;15.55;8.27;;;18.50;99.90;;;;;;5031339;28;20026;-81
2021/06/29 04:44:27;;;;;;;16.35;8.63;;;18.70;99.90;;;;;;5033171;28;20392;-81
2021/06/29 04:46:53;;;;;;;11.63;7.90;;;18.90;99.90;;;;;;5048478;28;20022;-81
2021/06/29 04:49:21;;;;;;;18.48;8.55;;;18.90;99.90;;;;;;5033083;28;20104;-81
2021/06/29 04:51:47;;;;;;;11.98;7.05;;;19.00;99.90;;;;;;5033609;28;20041;-81
2021/06/29 04:54:12;;;;;;;13.70;7.88;;;19.20;99.90;;;;;;5028426;28;20034;-81
2021/06/29 04:56:38;;;;;;;18.02;8.43;;;19.10;99.90;;;;;;5013171;28;20402;-82
2021/06/29 04:59:03;;;;;;;18.98;9.63;;;19.20;99.90;;;;;;5013142;28;20490;-81
2021/06/29 05:01:30;;;;;;;16.48;8.98;;;19.30;99.90;;;;;;5013721;28;20410;-81
2021/06/29 05:03:56;;;;;;;11.18;6.63;;;19.40;99.90;;;;;;5022307;28;20087;-81
2021/06/29 05:06:22;;;;;;;13.25;8.48;;;19.30;99.90;;;;;;5032698;28;20060;-81
2021/06/29 05:08:47;;;;;;;10.43;7.15;;;19.40;99.90;;;;;;5032703;28;20049;-81
2021/06/29 05:11:14;;;;;;;14.88;8.68;;;19.50;99.90;;;;;;5030916;28;20108;-81
2021/06/29 05:13:39;;;;;;;24.02;9.00;;;19.50;99.90;;;;;;5028793;28;20022;-81
2021/06/29 05:16:05;;;;;;;26.48;9.35;;;19.40;99.90;;;;;;5014510;28;20498;-81
2021/06/29 05:18:31;;;;;;;11.93;7.97;;;19.30;99.90;;;;;;5032467;28;20022;-81
2021/06/29 05:20:57;;;;;;;20.35;8.60;;;19.40;99.90;;;;;;5032436;28;20038;-81
2021/06/29 05:23:23;;;;;;;12.50;7.63;;;19.50;99.90;;;;;;5013231;28;20034;-81
2021/06/29 05:25:48;;;;;;;17.88;8.25;;;19.50;99.90;;;;;;5012756;28;20483;-82
2021/06/29 05:28:18;;;;;;;13.43;8.80;;;19.60;99.90;;;;;;5012639;28;20437;-81
2021/06/29 05:30:44;;;;;;;11.30;8.30;;;19.60;99.90;;;;;;5011396;28;20026;-81
2021/06/29 05:33:10;;;;;;;18.60;8.10;;;19.70;99.90;;;;;;5024515;28;20037;-81
2021/06/29 05:35:36;;;;;;;12.45;8.20;;;19.70;99.90;;;;;;5047557;28;20026;-81
2021/06/29 05:38:01;;;;;;;13.77;8.27;;;19.70;99.90;;;;;;5032585;28;20044;-81
2021/06/29 05:40:28;;;;;;;13.85;7.72;;;19.90;99.90;;;;;;5020901;28;20029;-82
2021/06/29 05:42:53;;;;;;;10.13;7.93;;;20.00;99.90;;;;;;5010725;28;20037;-81
2021/06/29 05:45:19;;;;;;;10.82;7.22;;;20.10;99.90;;;;;;5012371;28;20387;-81
2021/06/29 05:47:46;;;;;;;16.88;7.05;;;20.30;99.90;;;;;;5012162;28;20060;-82
2021/06/29 05:50:13;;;;;;;18.88;8.18;;;20.40;99.90;;;;;;5012337;28;20025;-81
2021/06/29 05:52:40;;;;;;;15.00;8.50;;;20.40;99.90;;;;;;5018909;28;20116;-81
2021/06/29 05:55:07;;;;;;;17.08;7.15;;;20.40;99.90;;;;;;5021630;28;20026;-81
2021/06/29 05:57:33;;;;;;;16.45;7.68;;;20.60;99.90;;;;;;5022468;28;20121;-80
2021/06/29 05:59:58;;;;;;;13.45;7.30;;;20.90;99.90;;;;;;5021205;28;20200;-80
2021/06/29 06:02:24;;;;;;;11.82;7.43;;;21.10;99.90;;;;;;5021456;28;20033;-81
2021/06/29 06:04:50;;;;;;;13.18;7.50;;;21.10;99.90;;;;;;5030228;28;20115;-80
2021/06/29 06:07:15;;;;;;;13.55;7.78;;;21.10;99.90;;;;;;5042663;28;20559;-80
2021/06/29 06:09:41;;;;;;;14.27;6.78;;;21.30;99.90;;;;;;5024097;28;20029;-81
2021/06/29 06:12:07;;;;;;;12.77;6.97;;;21.40;99.90;;;;;;5042160;28;20034;-81
2021/06/29 06:14:33;;;;;;;9.40;6.80;;;21.40;99.90;;;;;;5026127;28;20076;-81
2021/06/29 06:16:59;;;;;;;14.23;6.80;;;21.50;99.90;;;;;;5027231;28;20053;-81
2021/06/29 06:19:24;;;;;;;12.27;5.72;;;21.70;99.90;;;;;;5041426;28;20029;-80
2021/06/29 06:21:50;;;;;;;13.43;5.63;;;21.60;99.90;;;;;;5026706;28;20064;-81
2021/06/29 06:24:16;;;;;;;8.95;5.00;;;21.80;99.90;;;;;;5042578;28;20088;-82
2021/06/29 06:26:41;;;;;;;8.52;5.03;;;21.80;99.90;;;;;;5027626;28;20032;-81
2021/06/29 06:29:07;;;;;;;6.47;5.30;;;21.90;99.90;;;;;;5042219;28;20036;-81
2021/06/29 06:31:33;;;;;;;9.20;5.75;;;22.00;99.90;;;;;;5027419;28;20084;-81
2021/06/29 06:33:58;;;;;;;10.65;5.28;;;21.90;99.90;;;;;;5027613;28;20105;-81
2021/06/29 06:36:24;;;;;;;8.93;6.10;;;21.80;99.90;;;;;;5026455;28;20040;-82
2021/06/29 06:38:50;;;;;;;12.35;6.07;;;22.00;99.90;;;;;;5026529;28;20026;-81
2021/06/29 06:41:16;;;;;;;9.43;5.90;;;22.00;99.90;;;;;;5024952;28;20021;-81
2021/06/29 06:43:43;;;;;;;16.85;5.97;;;22.10;99.90;;;;;;5037784;28;20029;-79
2021/06/29 06:46:09;;;;;;;12.18;6.00;;;22.10;99.90;;;;;;5025843;28;20397;-81
2021/06/29 06:48:36;;;;;;;10.05;5.57;;;22.10;99.90;;;;;;5025475;28;20097;-81
2021/06/29 06:51:01;;;;;;;14.20;6.93;;;22.10;99.90;;;;;;5026222;28;20080;-81
2021/06/29 06:53:27;;;;;;;9.27;6.30;;;22.20;99.90;;;;;;5026721;28;20056;-81
2021/06/29 06:55:52;;;;;;;18.08;6.03;;;22.30;99.90;;;;;;5029552;28;20029;-81
2021/06/29 06:58:18;;;;;;;18.08;6.28;;;22.50;99.90;;;;;;5029985;28;20033;-82
2021/06/29 07:00:44;;;;;;;16.08;6.03;;;22.60;99.90;;;;;;5030685;28;20022;-83
2021/06/29 07:03:09;;;;;;;13.75;6.00;;;22.70;99.90;;;;;;5046254;28;20029;-81
2021/06/29 07:05:35;;;;;;;14.70;6.00;;;22.70;99.90;;;;;;5049775;28;20045;-81
2021/06/29 07:08:00;;;;;;;8.25;6.20;;;22.80;99.90;;;;;;5050568;28;20076;-82
2021/06/29 07:10:26;;;;;;;7.38;4.82;;;22.90;99.90;;;;;;5031900;28;20102;-81
2021/06/29 07:12:52;;;;;;;10.40;6.82;;;23.00;99.90;;;;;;5015039;28;20546;-81
2021/06/29 07:15:17;;;;;;;9.82;6.53;;;23.00;99.90;;;;;;5015127;28;20038;-81
2021/06/29 07:17:43;;;;;;;9.55;5.35;;;22.90;99.90;;;;;;5030400;28;20052;-81
2021/06/29 07:20:09;;;;;;;11.80;5.80;;;22.90;99.90;;;;;;5015076;28;20398;-81
2021/06/29 07:22:36;;;;;;;10.52;5.53;;;23.10;99.90;;;;;;5024268;28;20036;-81
2021/06/29 07:25:04;;;;;;;11.43;5.82;;;23.00;99.90;;;;;;5013800;28;20026;-82
2021/06/29 07:27:29;;;;;;;11.75;6.93;;;23.00;99.90;;;;;;5013773;28;20457;-81
2021/06/29 07:29:55;;;;;;;9.65;5.15;;;23.00;99.90;;;;;;5030037;28;20047;-81
2021/06/29 07:32:20;;;;;;;12.82;5.93;;;23.00;99.90;;;;;;5042176;28;20036;-81
2021/06/29 07:34:46;;;;;;;12.18;6.45;;;23.00;99.90;;;;;;5034719;28;20030;-82
2021/06/29 07:37:12;;;;;;;8.65;6.25;;;23.00;99.90;;;;;;5034540;28;20156;-82
2021/06/29 07:39:37;;;;;;;9.52;6.75;;;23.00;99.90;;;;;;5033373;28;20474;-83
2021/06/29 07:42:03;;;;;;;9.35;5.90;;;23.10;99.90;;;;;;5036880;28;20458;-82
2021/06/29 07:44:29;;;;;;;9.75;6.85;;;23.10;99.90;;;;;;5014560;28;20030;-82
2021/06/29 07:46:57;;;;;;;13.05;7.03;;;23.10;99.90;;;;;;5015444;28;20036;-82
2021/06/29 07:49:23;;;;;;;13.68;6.45;;;23.20;99.90;;;;;;5027421;28;20367;-82
2021/06/29 07:51:48;;;;;;;9.77;5.72;;;23.30;99.90;;;;;;5029549;28;20025;-82
2021/06/29 07:54:14;;;;;;;14.63;6.75;;;23.50;99.90;;;;;;5041019;28;20036;-82
2021/06/29 07:56:40;;;;;;;9.77;6.38;;;23.60;99.90;;;;;;5014486;28;20034;-82
2021/06/29 07:59:05;;;;;;;18.67;7.03;;;23.80;99.90;;;;;;5028276;28;20045;-82
2021/06/29 08:01:31;;;;;;;18.15;7.07;;;23.90;99.90;;;;;;5033812;28;20025;-83
2021/06/29 08:03:57;;;;;;;9.88;5.80;;;24.00;99.90;;;;;;5034195;28;20043;-82
2021/06/29 08:06:23;;;;;;;12.95;6.07;;;24.20;99.90;;;;;;5049323;28;20029;-83
2021/06/29 08:08:48;;;;;;;16.98;6.28;;;24.20;99.90;;;;;;5032322;28;20029;-82
2021/06/29 08:11:14;;;;;;;9.32;4.90;;;24.40;99.90;;;;;;5033897;28;20047;-83
2021/06/29 08:13:40;;;;;;;12.07;5.80;;;24.70;99.90;;;;;;5033689;28;20026;-83
2021/06/29 08:16:06;;;;;;;9.48;6.15;;;24.90;99.90;;;;;;5048892;28;20029;-81
2021/06/29 08:18:33;;;;;;;7.03;5.32;;;25.10;99.90;;;;;;5031789;28;20040;-83
2021/06/29 08:21:00;;;;;;;9.82;6.20;;;25.10;99.90;;;;;;5030572;28;20116;-82
2021/06/29 08:23:28;;;;;;;8.73;5.40;;;25.20;99.90;;;;;;5048933;28;20029;-81
2021/06/29 08:25:53;;;;;;;10.52;6.60;;;25.10;99.90;;;;;;5033761;28;20025;-81
2021/06/29 08:28:19;;;;;;;10.10;6.45;;;25.10;99.90;;;;;;5032748;28;20079;-81
2021/06/29 08:30:45;;;;;;;8.15;5.63;;;24.90;99.90;;;;;;5013730;28;20026;-81
2021/06/29 08:33:11;;;;;;;8.73;6.18;;;25.00;99.90;;;;;;5014493;28;20121;-82
2021/06/29 08:35:39;;;;;;;6.75;5.00;;;25.00;99.90;;;;;;5013741;28;20080;-81
2021/06/29 08:38:05;;;;;;;7.47;6.78;;;25.40;99.90;;;;;;5019173;28;20049;-81
2021/06/29 08:40:32;;;;;;;22.60;5.82;;;25.70;99.90;;;;;;5044039;28;20030;-82
2021/06/29 08:42:59;;;;;;;12.10;7.28;;;25.90;99.90;;;;;;5027226;28;20400;-81
2021/06/29 08:45:24;;;;;;;14.65;6.60;;;25.90;99.90;;;;;;5044060;28;20053;-80
2021/06/29 08:47:50;;;;;;;9.25;6.10;;;26.00;99.90;;;;;;5024623;28;20053;-82
2021/06/29 08:50:16;;;;;;;7.88;5.43;;;25.90;99.90;;;;;;5021981;28;20083;-82
2021/06/29 08:52:42;;;;;;;8.93;6.18;;;25.90;99.90;;;;;;5028615;28;20426;-82
2021/06/29 08:55:11;;;;;;;9.82;7.28;;;25.80;99.90;;;;;;5028738;28;20048;-82
2021/06/29 08:57:36;;;;;;;11.85;6.82;;;25.60;99.90;;;;;;5023390;28;20417;-82
2021/06/29 09:00:05;;;;;;;10.48;6.28;;;25.70;99.90;;;;;;5027539;28;20104;-82
2021/06/29 09:02:31;;;;;;;11.05;5.70;;;25.50;99.90;;;;;;5028158;28;20044;-81
2021/06/29 09:05:00;;;;;;;9.05;6.32;;;25.50;99.90;;;;;;5024237;28;20030;-81
2021/06/29 09:07:28;;;;;;;8.85;7.45;;;25.40;99.90;;;;;;5028465;28;20114;-81
2021/06/29 09:10:03;;;;;;;13.13;6.13;;;25.20;99.90;;;;;;5026357;28;20037;-81
2021/06/29 09:12:45;;;;;;;9.73;6.50;;;25.10;99.90;;;;;;5024691;28;20030;-82
2021/06/29 09:15:32;;;;;;;11.75;7.63;;;25.00;99.90;;;;;;5028304;28;20030;-81
2021/06/29 09:18:11;;;;;;;10.27;6.30;;;24.80;99.90;;;;;;5028360;28;20120;-81
2021/06/29 09:20:42;;;;;;;10.63;8.10;;;24.80;99.90;;;;;;5028448;28;20076;-81
2021/06/29 09:23:13;;;;;;;10.05;6.82;;;24.60;99.90;;;;;;5026957;28;20026;-81
2021/06/29 09:25:41;;;;;;;10.60;6.80;;;24.50;99.90;;;;;;5035468;28;20485;-81
2021/06/29 09:28:08;;;;;;;13.60;7.82;;;24.80;99.90;;;;;;5027534;28;20032;-81
2021/06/29 09:30:42;;;;;;;9.50;7.35;;;25.10;99.90;;;;;;5035601;28;20080;-81
2021/06/29 09:33:24;;;;;;;15.13;8.70;;;25.30;99.90;;;;;;5020000;28;20037;-81
2021/06/29 09:35:55;;;;;;;12.05;8.27;;;25.40;99.90;;;;;;5026370;28;20040;-81
2021/06/29 09:38:24;;;;;;;12.45;7.45;;;25.40;99.90;;;;;;5027938;28;20034;-81
2021/06/29 09:40:58;;;;;;;14.65;8.88;;;25.30;99.90;;;;;;5027180;28;20041;-80
2021/06/29 09:43:25;;;;;;;11.73;7.93;;;25.20;99.90;;;;;;5027319;28;20440;-81
2021/06/29 09:45:55;;;;;;;10.57;6.90;;;24.90;99.90;;;;;;5027838;28;20056;-81
2021/06/29 09:48:42;;;;;;;16.30;10.30;;;24.90;99.90;;;;;;5027864;28;20022;-81
2021/06/29 09:51:31;;;;;;;8.75;6.38;;;24.70;99.90;;;;;;5027606;28;20532;-81
2021/06/29 09:54:03;;;;;;;16.83;8.30;;;24.60;99.90;;;;;;5027686;28;20374;-81
2021/06/29 09:56:39;;;;;;;12.00;7.05;;;24.80;99.90;;;;;;5009653;28;20038;-81
2021/06/29 09:59:16;;;;;;;18.90;10.55;;;24.90;99.90;;;;;;5020758;28;20405;-82
2021/06/29 10:01:42;;;;;;;6.82;6.13;;;25.00;99.90;;;;;;5027394;28;20130;-82
2021/06/29 10:04:08;;;;;;;8.90;6.85;;;25.10;99.90;;;;;;5027137;28;20033;-81
2021/06/29 10:06:35;;;;;;;8.98;6.70;;;25.10;99.90;;;;;;5026935;28;20103;-83
2021/06/29 10:09:10;;;;;;;10.30;7.82;;;25.20;99.90;;;;;;5042287;28;20029;-82
2021/06/29 10:11:41;;;;;;;10.73;7.60;;;25.20;99.90;;;;;;5042898;28;20191;-82
2021/06/29 10:14:16;;;;;;;8.65;6.75;;;24.90;99.90;;;;;;5042257;28;20108;-83
2021/06/29 10:16:48;;;;;;;15.95;6.68;;;25.00;99.90;;;;;;5026768;28;20021;-82
2021/06/29 10:19:25;;;;;;;17.83;8.55;;;24.90;99.90;;;;;;5026969;28;20032;-81
2021/06/29 10:21:54;;;;;;;10.98;6.80;;;25.00;99.90;;;;;;5027308;28;20029;-82
2021/06/29 10:24:23;;;;;;;10.90;7.32;;;25.00;99.90;;;;;;5027161;28;20104;-83
2021/06/29 10:26:51;;;;;;;9.63;6.60;;;25.00;99.90;;;;;;5027333;28;20025;-82
2021/06/29 10:29:21;;;;;;;9.23;6.03;;;25.10;99.90;;;;;;5039865;28;20025;-81
2021/06/29 10:31:59;;;;;;;8.02;6.53;;;25.10;99.90;;;;;;5026130;28;20018;-82
2021/06/29 10:34:25;;;;;;;12.23;9.10;;;25.20;99.90;;;;;;5027407;28;20026;-82
2021/06/29 10:36:53;;;;;;;15.45;8.30;;;25.40;99.90;;;;;;5029771;28;20504;-81
2021/06/29 10:39:22;;;;;;;11.60;9.18;;;25.40;99.90;;;;;;5033896;28;20034;-81
2021/06/29 10:42:03;;;;;;;16.25;9.38;;;25.40;99.90;;;;;;5033810;28;20034;-81
2021/06/29 10:44:34;;;;;;;11.10;9.43;;;25.50;99.90;;;;;;5051066;28;20037;-86
2021/06/29 10:47:00;;;;;;;14.65;8.63;;;25.60;99.90;;;;;;5035777;28;20022;-85
2021/06/29 10:49:42;;;;;;;12.25;9.10;;;25.70;99.90;;;;;;5035641;28;20021;-85
2021/06/29 10:52:23;;;;;;;20.23;9.40;;;25.90;99.90;;;;;;5037341;28;20038;-85
2021/06/29 10:54:51;;;;;;;16.30;8.40;;;26.40;99.90;;;;;;5015928;28;20033;-83
2021/06/29 10:57:20;;;;;;;13.18;9.02;;;26.50;99.90;;;;;;5015617;28;20030;-82
2021/06/29 10:59:51;;;;;;;11.40;8.73;;;26.60;99.90;;;;;;5015701;28;20030;-81
2021/06/29 11:02:36;;;;;;;21.60;9.93;;;26.60;99.90;;;;;;5016286;28;20040;-80
2021/06/29 11:05:23;;;;;;;14.52;8.00;;;26.90;99.90;;;;;;5014229;28;20033;-80
2021/06/29 11:07:48;;;;;;;14.05;8.25;;;27.20;99.90;;;;;;5015342;28;20037;-80
2021/06/29 11:10:27;;;;;;;15.73;8.65;;;27.30;99.90;;;;;;5030698;28;20026;-80
2021/06/29 11:12:53;;;;;;;24.13;9.77;;;27.10;99.90;;;;;;5027037;28;20468;-80
2021/06/29 11:15:39;;;;;;;10.45;7.97;;;27.20;99.90;;;;;;5035087;28;20026;-81
2021/06/29 11:18:05;;;;;;;9.98;6.88;;;27.10;99.90;;;;;;5035085;28;20029;-80
2021/06/29 11:20:49;;;;;;;9.90;7.18;;;27.10;99.90;;;;;;5035054;28;20080;-82
2021/06/29 11:23:15;;;;;;;16.48;7.97;;;27.10;99.90;;;;;;5022081;28;20098;-81
2021/06/29 11:25:50;;;;;;;11.82;8.63;;;27.10;99.90;;;;;;5014899;28;20420;-81
2021/06/29 11:28:21;;;;;;;14.00;9.52;;;26.90;99.90;;;;;;5015059;28;20505;-81
2021/06/29 11:30:50;;;;;;;13.27;8.90;;;26.50;99.90;;;;;;5043211;28;20025;-80
2021/06/29 11:33:37;;;;;;;22.08;9.50;;;26.20;99.90;;;;;;5034544;28;20026;-80
2021/06/29 11:36:05;;;;;;;14.63;8.52;;;25.80;99.90;;;;;;5049934;28;20032;-80
2021/06/29 11:38:42;;;;;;;14.80;7.68;;;25.60;99.90;;;;;;5049769;28;20049;-79
2021/06/29 11:41:29;;;;;;;11.77;7.35;;;25.70;99.90;;;;;;5048258;28;20064;-79
2021/06/29 11:44:17;;;;;;;13.23;8.45;;;25.90;99.90;;;;;;5049794;28;20033;-78
2021/06/29 11:46:50;;;;;;;15.63;11.02;;;26.00;99.90;;;;;;5049732;28;20053;-80
2021/06/29 11:49:34;;;;;;;12.00;8.00;;;26.20;99.90;;;;;;5033973;28;20018;-81
2021/06/29 11:52:00;;;;;;;11.10;7.63;;;26.50;99.90;;;;;;5021704;28;20040;-81
2021/06/29 11:54:44;;;;;;;17.38;11.10;;;26.70;99.90;;;;;;5017271;28;20025;-79
2021/06/29 11:57:32;;;;;;;22.50;10.18;;;26.80;99.90;;;;;;5019741;28;20109;-79
2021/06/29 12:00:00;;;;;;;9.50;7.32;;;26.80;99.90;;;;;;5021377;28;20026;-79
2021/06/29 12:02:28;;;;;;;10.93;7.85;;;27.20;99.90;;;;;;5031175;28;20115;-79
2021/06/29 12:05:08;;;;;;;18.80;8.77;;;27.50;99.90;;;;;;5030310;28;20033;-79
2021/06/29 12:07:37;;;;;;;10.60;8.20;;;27.60;99.90;;;;;;5029873;28;20417;-79
2021/06/29 12:10:08;;;;;;;15.13;8.88;;;27.80;99.90;;;;;;5030618;28;20168;-80
2021/06/29 12:12:34;;;;;;;21.02;11.52;;;27.80;99.90;;;;;;5031214;28;20092;-79
2021/06/29 12:14:59;;;;;;;17.95;10.15;;;27.50;99.90;;;;;;5034051;28;20115;-79
2021/06/29 12:17:25;;;;;;;17.77;11.07;;;27.30;99.90;;;;;;5033851;28;20501;-79
2021/06/29 12:19:59;;;;;;;14.18;10.55;;;27.30;99.90;;;;;;5033647;28;20087;-79
2021/06/29 12:22:27;;;;;;;13.80;11.50;;;27.50;99.90;;;;;;5032837;28;20389;-79
2021/06/29 12:24:53;;;;;;;16.00;8.77;;;27.80;99.90;;;;;;5033569;28;20087;-79
2021/06/29 12:27:18;;;;;;;12.18;8.02;;;28.30;99.90;;;;;;5032365;28;20478;-79
2021/06/29 12:29:44;;;;;;;14.30;9.93;;;28.80;99.90;;;;;;5033489;28;20478;-79
2021/06/29 12:32:18;;;;;;;9.57;7.55;;;29.30;99.90;;;;;;5031275;28;20033;-79
2021/06/29 12:34:44;;;;;;;10.20;8.05;;;29.70;99.90;;;;;;5033164;28;20030;-79
2021/06/29 12:37:10;;;;;;;12.40;9.90;;;29.80;99.90;;;;;;5033414;28;20028;-79
2021/06/29 12:39:36;;;;;;;14.63;12.32;;;29.50;99.90;;;;;;5048656;28;20053;-80
2021/06/29 12:42:13;;;;;;;15.68;12.25;;;29.10;99.90;;;;;;5030034;28;20065;-82